createdAt,value
2017-06-15T00:00:04.424Z,25.51
2017-06-15T00:01:14.641Z,25.51
2017-06-15T00:02:24.856Z,25.46
2017-06-15T00:03:34.777Z,25.55
2017-06-15T00:04:44.696Z,25.57
2017-06-15T00:05:54.956Z,25.46
2017-06-15T00:07:04.262Z,25.45
2017-06-15T00:08:14.015Z,25.43
2017-06-15T00:09:24.237Z,25.47
2017-06-15T00:10:34.143Z,25.39
2017-06-15T00:11:44.056Z,25.43
2017-06-15T00:12:53.981Z,25.47
2017-06-15T00:14:03.893Z,25.46
2017-06-15T00:15:14.117Z,25.39
2017-06-15T00:16:23.732Z,25.39
2017-06-15T00:17:33.654Z,25.38
2017-06-15T00:18:43.562Z,25.36
2017-06-15T00:19:53.922Z,25.32
2017-06-15T00:21:03.832Z,25.38
2017-06-15T00:22:13.457Z,25.33
2017-06-15T00:23:23.074Z,25.3
2017-06-15T00:24:33.003Z,25.28
2017-06-15T00:25:43.568Z,25.3
2017-06-15T00:26:53.479Z,25.3
2017-06-15T00:28:03.405Z,25.23
2017-06-15T00:29:13.037Z,25.3
2017-06-15T00:30:22.938Z,25.3
2017-06-15T00:31:32.686Z,25.3
2017-06-15T00:32:42.899Z,25.27
2017-06-15T00:33:53.117Z,25.33
2017-06-15T00:35:03.342Z,25.27
2017-06-15T00:36:13.554Z,25.25
2017-06-15T00:37:23.617Z,25.28
2017-06-15T00:38:33.540Z,25.32
2017-06-15T00:39:43.747Z,25.24
2017-06-15T00:40:53.661Z,25.24
2017-06-15T00:42:03.872Z,25.2
2017-06-15T00:43:14.122Z,25.3
2017-06-15T00:44:23.726Z,25.24
2017-06-15T00:45:33.934Z,25.28
2017-06-15T00:46:43.538Z,25.33
2017-06-15T00:47:53.767Z,25.2
2017-06-15T00:49:03.825Z,25.17
2017-06-15T00:50:13.416Z,25.23
2017-06-15T00:51:23.625Z,25.2
2017-06-15T00:52:33.550Z,25.21
2017-06-15T00:53:43.153Z,25.2
2017-06-15T00:54:52.905Z,25.17
2017-06-15T00:56:03.121Z,25.13
2017-06-15T00:57:13.035Z,25.2
2017-06-15T00:58:22.954Z,25.15
2017-06-15T00:59:33.187Z,25.14
2017-06-15T01:00:43.559Z,25.15
2017-06-15T01:01:53.161Z,25.18
2017-06-15T01:03:03.068Z,25.13
2017-06-15T01:04:12.982Z,25.1
2017-06-15T01:05:23.227Z,25.09
2017-06-15T01:06:32.848Z,25.14
2017-06-15T01:07:43.055Z,25.06
2017-06-15T01:08:52.666Z,25.13
2017-06-15T01:10:02.891Z,25.14
2017-06-15T01:11:12.189Z,25.1
2017-06-15T01:12:22.529Z,25.13
2017-06-15T01:13:32.433Z,25.02
2017-06-15T01:14:42.033Z,25.06
2017-06-15T01:15:51.660Z,25.06
2017-06-15T01:17:01.584Z,24.95
2017-06-15T01:18:11.585Z,24.99
2017-06-15T01:19:21.196Z,24.98
2017-06-15T01:20:31.408Z,24.96
2017-06-15T01:21:41.335Z,24.93
2017-06-15T01:22:51.252Z,24.96
2017-06-15T01:24:01.486Z,24.99
2017-06-15T01:25:11.160Z,24.98
2017-06-15T01:26:21.368Z,24.93
2017-06-15T01:27:31.277Z,24.93
2017-06-15T01:28:40.870Z,24.93
2017-06-15T01:29:50.776Z,24.93
2017-06-15T01:31:00.681Z,24.95
2017-06-15T01:32:10.301Z,24.9
2017-06-15T01:33:20.533Z,24.9
2017-06-15T01:34:30.749Z,24.96
2017-06-15T01:35:40.697Z,24.93
2017-06-15T01:36:50.607Z,24.9
2017-06-15T01:38:01.216Z,24.95
2017-06-15T01:39:11.124Z,24.88
2017-06-15T01:40:21.337Z,24.91
2017-06-15T01:41:31.242Z,24.78
2017-06-15T01:42:41.220Z,24.87
2017-06-15T01:43:51.128Z,24.85
2017-06-15T01:45:01.050Z,24.88
2017-06-15T01:46:10.344Z,24.8
2017-06-15T01:47:20.571Z,24.85
2017-06-15T01:48:30.170Z,24.8
2017-06-15T01:49:44.805Z,24.81
2017-06-15T01:50:54.405Z,24.81
2017-06-15T01:52:04.649Z,24.78
2017-06-15T01:53:14.705Z,24.85
2017-06-15T01:54:24.312Z,24.8
2017-06-15T01:55:34.242Z,24.81
2017-06-15T01:56:44.457Z,24.8
2017-06-15T01:57:53.748Z,24.8
2017-06-15T01:59:03.808Z,24.78
2017-06-15T02:00:13.730Z,24.76
2017-06-15T02:01:23.653Z,24.83
2017-06-15T02:02:33.867Z,24.8
2017-06-15T02:03:43.769Z,24.77
2017-06-15T02:04:53.797Z,24.77
2017-06-15T02:06:04.027Z,24.84
2017-06-15T02:07:13.020Z,24.8
2017-06-15T02:08:22.625Z,24.76
2017-06-15T02:09:32.838Z,24.73
2017-06-15T02:10:43.202Z,24.73
2017-06-15T02:11:53.121Z,24.77
2017-06-15T02:13:03.029Z,24.71
2017-06-15T02:14:13.252Z,24.76
2017-06-15T02:15:23.171Z,24.76
2017-06-15T02:16:33.551Z,24.61
2017-06-15T02:17:43.762Z,24.73
2017-06-15T02:18:53.676Z,24.65
2017-06-15T02:20:03.899Z,24.73
2017-06-15T02:21:13.202Z,24.68
2017-06-15T02:22:23.567Z,24.65
2017-06-15T02:23:33.470Z,24.73
2017-06-15T02:24:43.702Z,24.65
2017-06-15T02:25:53.313Z,24.71
2017-06-15T02:27:03.530Z,24.67
2017-06-15T02:28:13.587Z,24.71
2017-06-15T02:29:23.801Z,24.62
2017-06-15T02:30:33.716Z,24.57
2017-06-15T02:31:43.312Z,24.57
2017-06-15T02:32:53.536Z,24.52
2017-06-15T02:34:03.593Z,24.52
2017-06-15T02:35:13.808Z,24.47
2017-06-15T02:36:23.412Z,24.53
2017-06-15T02:37:33.023Z,24.5
2017-06-15T02:38:43.246Z,24.39
2017-06-15T02:39:53.334Z,24.42
2017-06-15T02:41:03.547Z,24.4
2017-06-15T02:42:13.458Z,24.31
2017-06-15T02:43:23.681Z,24.49
2017-06-15T02:44:33.599Z,24.31
2017-06-15T02:45:43.967Z,24.31
2017-06-15T02:46:53.262Z,24.43
2017-06-15T02:48:03.161Z,24.32
2017-06-15T02:49:13.061Z,24.45
2017-06-15T02:50:23.272Z,24.31
2017-06-15T02:51:33.191Z,24.35
2017-06-15T02:52:43.411Z,24.43
2017-06-15T02:53:53.619Z,24.46
2017-06-15T02:55:03.216Z,24.31
2017-06-15T02:56:13.118Z,24.4
2017-06-15T02:57:22.725Z,24.3
2017-06-15T02:58:32.954Z,24.3
2017-06-15T02:59:43.167Z,24.28
2017-06-15T03:00:52.773Z,24.31
2017-06-15T03:02:02.986Z,24.28
2017-06-15T03:03:13.297Z,24.27
2017-06-15T03:04:23.516Z,24.3
2017-06-15T03:05:33.418Z,24.27
2017-06-15T03:06:43.319Z,24.21
2017-06-15T03:07:53.224Z,24.24
2017-06-15T03:09:02.964Z,24.2
2017-06-15T03:10:11.950Z,24.2
2017-06-15T03:11:21.858Z,24.21
2017-06-15T03:12:31.769Z,24.09
2017-06-15T03:13:41.733Z,24.08
2017-06-15T03:14:51.338Z,24.1
2017-06-15T03:16:01.253Z,24.16
2017-06-15T03:17:11.162Z,24.1
2017-06-15T03:18:20.147Z,24.16
2017-06-15T03:19:29.749Z,24.09
2017-06-15T03:20:39.399Z,24.22
2017-06-15T03:21:49.313Z,24.28
2017-06-15T03:22:58.603Z,24.31
2017-06-15T03:24:08.504Z,24.39
2017-06-15T03:25:18.105Z,24.42
2017-06-15T03:26:27.539Z,24.45
2017-06-15T03:27:37.134Z,24.42
2017-06-15T03:28:47.720Z,24.55
2017-06-15T03:29:57.931Z,24.6
2017-06-15T03:31:07.834Z,24.67
2017-06-15T03:32:18.200Z,24.69
2017-06-15T03:33:28.433Z,24.76
2017-06-15T03:34:37.730Z,24.78
2017-06-15T03:35:47.630Z,24.8
2017-06-15T03:36:57.836Z,24.77
2017-06-15T03:38:08.057Z,24.85
2017-06-15T03:39:18.294Z,24.77
2017-06-15T03:40:28.210Z,24.77
2017-06-15T03:41:37.506Z,24.73
2017-06-15T03:42:47.422Z,24.65
2017-06-15T03:43:57.330Z,24.65
2017-06-15T03:45:07.545Z,24.64
2017-06-15T03:46:17.150Z,24.69
2017-06-15T03:47:26.760Z,24.68
2017-06-15T03:48:36.353Z,24.76
2017-06-15T03:49:46.313Z,24.78
2017-06-15T03:50:55.906Z,24.8
2017-06-15T03:52:05.227Z,24.81
2017-06-15T03:53:15.457Z,24.9
2017-06-15T03:54:25.048Z,24.9
2017-06-15T03:55:35.408Z,24.91
2017-06-15T03:56:45.625Z,25.02
2017-06-15T03:57:55.839Z,25.06
2017-06-15T03:59:05.745Z,25.08
2017-06-15T04:00:15.965Z,25.09
2017-06-15T04:01:26.287Z,25.13
2017-06-15T04:02:36.243Z,25.2
2017-06-15T04:03:46.170Z,25.21
2017-06-15T04:04:55.465Z,25.27
2017-06-15T04:06:05.065Z,25.25
2017-06-15T04:07:15.421Z,25.32
2017-06-15T04:08:25.635Z,25.28
2017-06-15T04:09:34.927Z,25.28
2017-06-15T04:10:44.831Z,25.3
2017-06-15T04:11:55.050Z,25.4
2017-06-15T04:13:05.062Z,25.39
2017-06-15T04:14:14.982Z,25.38
2017-06-15T04:15:24.889Z,25.33
2017-06-15T04:16:34.483Z,25.52
2017-06-15T04:17:44.391Z,25.45
2017-06-15T04:18:54.311Z,25.51
2017-06-15T04:20:04.529Z,25.55
2017-06-15T04:21:14.742Z,25.57
2017-06-15T04:22:24.345Z,25.55
2017-06-15T04:23:33.965Z,25.62
2017-06-15T04:24:43.927Z,25.6
2017-06-15T04:25:53.843Z,25.58
2017-06-15T04:27:04.063Z,25.64
2017-06-15T04:28:14.272Z,25.72
2017-06-15T04:29:24.189Z,25.72
2017-06-15T04:30:34.565Z,25.7
2017-06-15T04:31:44.821Z,25.77
2017-06-15T04:32:54.729Z,25.8
2017-06-15T04:34:04.345Z,25.75
2017-06-15T04:35:14.258Z,25.8
2017-06-15T04:36:24.525Z,25.87
2017-06-15T04:37:34.133Z,25.94
2017-06-15T04:38:44.361Z,25.9
2017-06-15T04:39:54.268Z,25.91
2017-06-15T04:41:04.181Z,25.95
2017-06-15T04:42:14.398Z,25.92
2017-06-15T04:43:24.316Z,25.94
2017-06-15T04:44:34.541Z,25.94
2017-06-15T04:45:44.762Z,26.06
2017-06-15T04:46:54.675Z,26.09
2017-06-15T04:48:05.048Z,25.98
2017-06-15T04:49:14.659Z,25.99
2017-06-15T04:50:24.278Z,26.05
2017-06-15T04:51:34.502Z,25.99
2017-06-15T04:52:44.135Z,26.09
2017-06-15T04:53:53.594Z,26.13
2017-06-15T04:55:03.518Z,26.06
2017-06-15T04:56:13.136Z,26.1
2017-06-15T04:57:23.056Z,26.07
2017-06-15T04:58:32.978Z,26.17
2017-06-15T04:59:43.306Z,26.21
2017-06-15T05:00:52.602Z,26.21
2017-06-15T05:02:01.899Z,26.2
2017-06-15T05:03:11.825Z,26.28
2017-06-15T05:04:21.742Z,26.23
2017-06-15T05:05:32.112Z,26.35
2017-06-15T05:06:42.340Z,26.29
2017-06-15T05:07:52.565Z,26.33
2017-06-15T05:09:02.179Z,26.32
2017-06-15T05:10:12.103Z,26.35
2017-06-15T05:11:21.592Z,26.43
2017-06-15T05:12:30.891Z,26.44
2017-06-15T05:13:40.806Z,26.47
2017-06-15T05:14:50.411Z,26.5
2017-06-15T05:16:00.638Z,26.55
2017-06-15T05:17:10.394Z,26.55
2017-06-15T05:18:20.621Z,26.6
2017-06-15T05:19:30.853Z,26.65
2017-06-15T05:20:40.763Z,26.7
2017-06-15T05:21:50.992Z,26.82
2017-06-15T05:23:01.439Z,27.04
2017-06-15T05:24:11.667Z,27.37
2017-06-15T05:25:21.607Z,27.62
2017-06-15T05:26:30.909Z,27.93
2017-06-15T05:27:41.126Z,28.14
2017-06-15T05:28:51.405Z,28.44
2017-06-15T05:30:01.638Z,28.64
2017-06-15T05:31:11.565Z,28.85
2017-06-15T05:32:21.489Z,29.09
2017-06-15T05:33:31.408Z,29.34
2017-06-15T05:34:40.866Z,29.55
2017-06-15T05:35:50.482Z,29.73
2017-06-15T05:37:00.714Z,30
2017-06-15T05:38:10.950Z,30.16
2017-06-15T05:39:20.562Z,30.42
2017-06-15T05:40:30.179Z,30.57
2017-06-15T05:41:40.413Z,30.7
2017-06-15T05:42:50.021Z,30.94
2017-06-15T05:44:00.248Z,31.09
2017-06-15T05:45:10.481Z,31.25
2017-06-15T05:46:20.574Z,31.47
2017-06-15T05:47:30.495Z,31.68
2017-06-15T05:48:40.176Z,31.85
2017-06-15T05:49:49.793Z,31.96
2017-06-15T05:50:59.731Z,32.08
2017-06-15T05:52:09.659Z,32.25
2017-06-15T05:53:19.271Z,32.37
2017-06-15T05:54:29.188Z,32.5
2017-06-15T05:55:38.838Z,32.66
2017-06-15T05:56:48.763Z,32.81
2017-06-15T05:57:58.792Z,32.93
2017-06-15T05:59:08.711Z,33.16
2017-06-15T06:00:18.641Z,33.39
2017-06-15T06:01:28.874Z,33.5
2017-06-15T06:02:39.095Z,33.53
2017-06-15T06:03:49.319Z,33.71
2017-06-15T06:04:58.955Z,33.82
2017-06-15T06:06:09.188Z,34
2017-06-15T06:07:19.110Z,34.12
2017-06-15T06:08:29.047Z,34.31
2017-06-15T06:09:39.156Z,34.44
2017-06-15T06:10:48.785Z,34.64
2017-06-15T06:11:58.393Z,34.69
2017-06-15T06:13:07.701Z,34.73
2017-06-15T06:14:17.918Z,34.85
2017-06-15T06:15:27.676Z,34.85
2017-06-15T06:16:37.592Z,34.81
2017-06-15T06:17:47.814Z,34.92
2017-06-15T06:18:57.424Z,35.09
2017-06-15T06:20:06.738Z,35.22
2017-06-15T06:21:17.109Z,35.41
2017-06-15T06:22:27.333Z,35.55
2017-06-15T06:23:37.561Z,35.7
2017-06-15T06:24:47.483Z,35.84
2017-06-15T06:25:56.800Z,35.78
2017-06-15T06:27:06.820Z,35.85
2017-06-15T06:28:16.446Z,35.89
2017-06-15T06:29:26.370Z,35.96
2017-06-15T06:30:36.296Z,36.07
2017-06-15T06:31:46.521Z,36.03
2017-06-15T06:32:56.755Z,35.94
2017-06-15T06:34:06.673Z,35.97
2017-06-15T06:35:16.281Z,36.01
2017-06-15T06:36:25.899Z,36.05
2017-06-15T06:37:35.528Z,36.13
2017-06-15T06:38:45.755Z,36.05
2017-06-15T06:39:55.668Z,36.13
2017-06-15T06:41:05.278Z,36.17
2017-06-15T06:42:14.589Z,36.39
2017-06-15T06:43:24.973Z,36.39
2017-06-15T06:44:34.892Z,36.66
2017-06-15T06:45:44.818Z,36.78
2017-06-15T06:46:54.733Z,36.88
2017-06-15T06:48:04.659Z,36.84
2017-06-15T06:49:14.887Z,36.72
2017-06-15T06:50:24.510Z,36.87
2017-06-15T06:51:34.122Z,36.91
2017-06-15T06:52:44.039Z,36.95
2017-06-15T06:53:53.963Z,37.05
2017-06-15T06:55:04.034Z,37.12
2017-06-15T06:56:13.350Z,37.05
2017-06-15T06:57:23.309Z,36.73
2017-06-15T06:58:33.221Z,36.39
2017-06-15T06:59:43.134Z,36.37
2017-06-15T07:00:53.537Z,36.39
2017-06-15T07:02:03.468Z,36.41
2017-06-15T07:03:13.078Z,36.66
2017-06-15T07:04:23.315Z,36.69
2017-06-15T07:05:33.537Z,36.88
2017-06-15T07:06:43.517Z,36.88
2017-06-15T07:07:53.440Z,36.81
2017-06-15T07:09:03.675Z,36.73
2017-06-15T07:10:13.287Z,36.69
2017-06-15T07:11:22.599Z,36.51
2017-06-15T07:12:32.682Z,36.49
2017-06-15T07:13:42.929Z,36.41
2017-06-15T07:14:52.863Z,36.38
2017-06-15T07:16:02.476Z,36.39
2017-06-15T07:17:12.086Z,36.38
2017-06-15T07:18:22.152Z,36.41
2017-06-15T07:19:32.071Z,36.38
2017-06-15T07:20:41.989Z,36.38
2017-06-15T07:21:51.912Z,36.41
2017-06-15T07:23:01.531Z,36.29
2017-06-15T07:24:11.913Z,36.17
2017-06-15T07:25:21.219Z,36.22
2017-06-15T07:26:31.483Z,36.25
2017-06-15T07:27:41.088Z,36.35
2017-06-15T07:28:51.323Z,36.38
2017-06-15T07:30:00.938Z,36.49
2017-06-15T07:31:10.864Z,36.6
2017-06-15T07:32:20.485Z,36.68
2017-06-15T07:33:30.714Z,36.81
2017-06-15T07:34:40.946Z,36.94
2017-06-15T07:35:51.177Z,36.87
2017-06-15T07:37:01.127Z,36.98
2017-06-15T07:38:11.358Z,36.99
2017-06-15T07:39:21.280Z,37.07
2017-06-15T07:40:30.916Z,37.18
2017-06-15T07:41:40.545Z,37.22
2017-06-15T07:42:50.463Z,37.39
2017-06-15T07:44:00.081Z,37.6
2017-06-15T07:45:09.689Z,37.64
2017-06-15T07:46:19.609Z,37.78
2017-06-15T07:47:29.886Z,37.86
2017-06-15T07:48:40.117Z,37.85
2017-06-15T07:49:50.047Z,37.97
2017-06-15T07:51:00.266Z,37.91
2017-06-15T07:52:10.497Z,37.7
2017-06-15T07:53:19.812Z,37.6
2017-06-15T07:54:30.043Z,37.56
2017-06-15T07:55:39.668Z,37.51
2017-06-15T07:56:49.591Z,37.47
2017-06-15T07:57:59.821Z,37.36
2017-06-15T07:59:09.445Z,37.22
2017-06-15T08:00:19.382Z,37.07
2017-06-15T08:01:28.998Z,37.07
2017-06-15T08:02:39.237Z,37.1
2017-06-15T08:03:49.165Z,37.1
2017-06-15T08:04:59.394Z,37.13
2017-06-15T08:06:09.620Z,36.99
2017-06-15T08:07:19.228Z,36.91
2017-06-15T08:08:28.840Z,36.81
2017-06-15T08:09:38.153Z,36.66
2017-06-15T08:10:48.492Z,36.43
2017-06-15T08:11:58.732Z,36.29
2017-06-15T08:13:08.049Z,36.22
2017-06-15T08:14:18.281Z,36.2
2017-06-15T08:15:28.210Z,36.03
2017-06-15T08:16:38.292Z,35.94
2017-06-15T08:17:47.910Z,35.94
2017-06-15T08:18:57.828Z,36
2017-06-15T08:20:07.751Z,36.08
2017-06-15T08:21:17.367Z,36.2
2017-06-15T08:22:27.604Z,36.35
2017-06-15T08:23:37.534Z,36.49
2017-06-15T08:24:47.449Z,36.64
2017-06-15T08:25:57.367Z,36.81
2017-06-15T08:27:07.597Z,36.76
2017-06-15T08:28:17.980Z,36.69
2017-06-15T08:29:27.285Z,36.73
2017-06-15T08:30:37.210Z,36.76
2017-06-15T08:31:47.141Z,36.88
2017-06-15T08:32:56.768Z,37.06
2017-06-15T08:34:07.168Z,37.24
2017-06-15T08:35:17.089Z,37.37
2017-06-15T08:36:27.007Z,37.44
2017-06-15T08:37:37.235Z,37.41
2017-06-15T08:38:46.857Z,37.29
2017-06-15T08:39:56.779Z,37.1
2017-06-15T08:41:06.723Z,36.88
2017-06-15T08:42:16.337Z,36.59
2017-06-15T08:43:25.962Z,36.34
2017-06-15T08:44:35.907Z,36.01
2017-06-15T08:45:45.883Z,35.84
2017-06-15T08:46:55.801Z,35.55
2017-06-15T08:48:06.034Z,35.34
2017-06-15T08:49:16.257Z,35.1
2017-06-15T08:50:26.197Z,34.82
2017-06-15T08:51:36.427Z,34.65
2017-06-15T08:52:46.039Z,34.53
2017-06-15T08:53:55.971Z,34.34
2017-06-15T08:55:05.897Z,34.12
2017-06-15T08:56:15.524Z,33.9
2017-06-15T08:57:25.461Z,33.73
2017-06-15T08:58:35.382Z,33.54
2017-06-15T08:59:45.302Z,33.37
2017-06-15T09:00:54.921Z,33.18
2017-06-15T09:02:04.844Z,33.04
2017-06-15T09:03:14.863Z,32.88
2017-06-15T09:04:25.082Z,32.72
2017-06-15T09:05:35.003Z,32.69
2017-06-15T09:06:45.228Z,32.44
2017-06-15T09:07:55.503Z,32.25
2017-06-15T09:09:05.829Z,32.1
2017-06-15T09:10:15.751Z,32.04
2017-06-15T09:11:25.717Z,31.93
2017-06-15T09:12:35.039Z,31.78
2017-06-15T09:13:45.009Z,31.78
2017-06-15T09:14:55.092Z,31.63
2017-06-15T09:16:05.027Z,31.56
2017-06-15T09:17:15.256Z,31.41
2017-06-15T09:18:25.488Z,31.35
2017-06-15T09:19:35.406Z,31.25
2017-06-15T09:20:45.634Z,31.21
2017-06-15T09:21:55.265Z,31.13
2017-06-15T09:23:05.178Z,30.98
2017-06-15T09:24:15.407Z,30.97
2017-06-15T09:25:25.327Z,30.88
2017-06-15T09:26:35.355Z,30.89
2017-06-15T09:27:45.580Z,30.79
2017-06-15T09:28:55.210Z,30.73
2017-06-15T09:30:04.515Z,30.64
2017-06-15T09:31:14.778Z,30.54
2017-06-15T09:32:24.869Z,30.46
2017-06-15T09:33:34.191Z,30.38
2017-06-15T09:34:44.142Z,30.43
2017-06-15T09:35:53.795Z,30.26
2017-06-15T09:37:03.476Z,30.27
2017-06-15T09:38:13.544Z,30.11
2017-06-15T09:39:23.780Z,30.13
2017-06-15T09:40:34.257Z,30.1
2017-06-15T09:41:44.194Z,30.05
2017-06-15T09:42:54.138Z,29.97
2017-06-15T09:44:04.714Z,29.98
2017-06-15T09:45:14.627Z,29.94
2017-06-15T09:46:24.557Z,29.89
2017-06-15T09:47:34.792Z,29.9
2017-06-15T09:48:44.407Z,29.83
2017-06-15T09:49:54.792Z,29.8
2017-06-15T09:51:04.404Z,29.76
2017-06-15T09:52:14.638Z,29.82
2017-06-15T09:53:24.562Z,29.78
2017-06-15T09:54:34.782Z,29.82
2017-06-15T09:55:43.880Z,29.79
2017-06-15T09:56:53.823Z,29.82
2017-06-15T09:58:04.075Z,29.71
2017-06-15T09:59:14.006Z,29.7
2017-06-15T10:00:23.951Z,29.64
2017-06-15T10:01:33.633Z,29.64
2017-06-15T10:02:43.562Z,29.71
2017-06-15T10:03:53.489Z,29.57
2017-06-15T10:05:03.423Z,29.53
2017-06-15T10:06:13.083Z,29.65
2017-06-15T10:07:22.826Z,29.52
2017-06-15T10:08:32.918Z,29.58
2017-06-15T10:09:42.259Z,29.43
2017-06-15T10:10:51.895Z,29.43
2017-06-15T10:12:01.820Z,29.43
2017-06-15T10:13:12.341Z,29.34
2017-06-15T10:14:22.109Z,29.41
2017-06-15T10:15:32.403Z,29.33
2017-06-15T10:16:42.096Z,29.28
2017-06-15T10:17:52.067Z,29.21
2017-06-15T10:19:02.788Z,29.26
2017-06-15T10:20:12.745Z,29.26
2017-06-15T10:21:22.962Z,29.18
2017-06-15T10:22:32.279Z,29.09
2017-06-15T10:23:42.516Z,29.06
2017-06-15T10:24:52.859Z,29.14
2017-06-15T10:26:02.542Z,29.02
2017-06-15T10:27:12.469Z,29.15
2017-06-15T10:28:21.844Z,29.06
2017-06-15T10:29:32.091Z,29.12
2017-06-15T10:30:42.708Z,29.08
2017-06-15T10:31:52.655Z,29.09
2017-06-15T10:33:02.899Z,29.06
2017-06-15T10:34:13.138Z,29.04
2017-06-15T10:35:22.791Z,29.08
2017-06-15T10:36:32.772Z,29.04
2017-06-15T10:37:42.719Z,29.08
2017-06-15T10:38:52.326Z,29.09
2017-06-15T10:40:02.250Z,29.15
2017-06-15T10:41:12.174Z,29.14
2017-06-15T10:42:22.556Z,29.16
2017-06-15T10:43:32.491Z,29.19
2017-06-15T10:44:42.444Z,29.08
2017-06-15T10:45:52.365Z,29.11
2017-06-15T10:47:02.302Z,29.08
2017-06-15T10:48:12.033Z,29.08
2017-06-15T10:49:21.693Z,29.06
2017-06-15T10:50:31.344Z,29.04
2017-06-15T10:51:41.589Z,29.04
2017-06-15T10:52:51.524Z,28.98
2017-06-15T10:54:01.913Z,29
2017-06-15T10:55:12.150Z,29.04
2017-06-15T10:56:22.090Z,29.05
2017-06-15T10:57:32.007Z,28.98
2017-06-15T10:58:42.232Z,28.9
2017-06-15T10:59:51.680Z,28.89
2017-06-15T11:01:01.601Z,28.88
2017-06-15T11:02:11.220Z,28.86
2017-06-15T11:03:20.522Z,28.83
2017-06-15T11:04:30.753Z,28.8
2017-06-15T11:05:40.817Z,28.76
2017-06-15T11:06:50.139Z,28.81
2017-06-15T11:08:00.365Z,28.71
2017-06-15T11:09:10.602Z,28.68
2017-06-15T11:10:20.212Z,28.71
2017-06-15T11:11:29.979Z,28.71
2017-06-15T11:12:39.586Z,28.66
2017-06-15T11:13:49.506Z,28.68
2017-06-15T11:14:59.424Z,28.56
2017-06-15T11:16:09.345Z,28.51
2017-06-15T11:17:19.265Z,28.56
2017-06-15T11:18:29.180Z,28.55
2017-06-15T11:19:39.404Z,28.54
2017-06-15T11:20:49.329Z,28.58
2017-06-15T11:21:58.958Z,28.52
2017-06-15T11:23:09.335Z,28.48
2017-06-15T11:24:19.254Z,28.43
2017-06-15T11:25:29.489Z,28.49
2017-06-15T11:26:39.410Z,28.51
2017-06-15T11:27:49.650Z,28.51
2017-06-15T11:29:00.070Z,28.39
2017-06-15T11:30:10.026Z,28.44
2017-06-15T11:31:19.974Z,28.52
2017-06-15T11:32:30.568Z,28.49
2017-06-15T11:33:40.509Z,28.46
2017-06-15T11:34:50.552Z,28.51
2017-06-15T11:36:00.819Z,28.54
2017-06-15T11:37:10.439Z,28.48
2017-06-15T11:38:20.368Z,28.46
2017-06-15T11:39:30.002Z,28.41
2017-06-15T11:40:39.688Z,28.49
2017-06-15T11:41:49.308Z,28.51
2017-06-15T11:42:59.234Z,28.54
2017-06-15T11:44:09.149Z,28.54
2017-06-15T11:45:19.080Z,28.43
2017-06-15T11:46:28.549Z,28.46
2017-06-15T11:47:38.160Z,28.54
2017-06-15T11:48:48.073Z,28.48
2017-06-15T11:49:57.709Z,28.44
2017-06-15T11:51:07.339Z,28.51
2017-06-15T11:52:16.971Z,28.51
2017-06-15T11:53:26.576Z,28.48
2017-06-15T11:54:36.798Z,28.46
2017-06-15T11:55:47.395Z,28.49
2017-06-15T11:56:57.641Z,28.44
2017-06-15T11:58:08.035Z,28.58
2017-06-15T11:59:18.267Z,28.59
2017-06-15T12:00:27.877Z,28.56
2017-06-15T12:01:37.486Z,28.58
2017-06-15T12:02:47.116Z,28.58
2017-06-15T12:03:56.902Z,28.58
2017-06-15T12:05:06.895Z,28.59
2017-06-15T12:06:17.116Z,28.54
2017-06-15T12:07:26.750Z,28.59
2017-06-15T12:08:36.049Z,28.62
2017-06-15T12:09:46.013Z,28.56
2017-06-15T12:10:55.624Z,28.59
2017-06-15T12:12:05.234Z,28.59
2017-06-15T12:13:15.462Z,28.66
2017-06-15T12:14:25.681Z,28.56
2017-06-15T12:15:35.296Z,28.67
2017-06-15T12:16:45.241Z,28.58
2017-06-15T12:17:54.855Z,28.67
2017-06-15T12:19:04.799Z,28.59
2017-06-15T12:20:14.722Z,28.54
2017-06-15T12:21:24.683Z,28.54
2017-06-15T12:22:34.307Z,28.54
2017-06-15T12:23:44.546Z,28.61
2017-06-15T12:24:54.792Z,28.59
2017-06-15T12:26:04.719Z,28.41
2017-06-15T12:27:14.638Z,28.49
2017-06-15T12:28:24.262Z,28.49
2017-06-15T12:29:34.182Z,28.44
2017-06-15T12:30:44.099Z,28.49
2017-06-15T12:31:53.423Z,28.39
2017-06-15T12:33:03.491Z,28.51
2017-06-15T12:34:13.119Z,28.44
2017-06-15T12:35:23.038Z,28.36
2017-06-15T12:36:32.960Z,28.49
2017-06-15T12:37:42.574Z,28.44
2017-06-15T12:38:52.290Z,28.48
2017-06-15T12:40:01.602Z,28.51
2017-06-15T12:41:11.833Z,28.54
2017-06-15T12:42:21.765Z,28.44
2017-06-15T12:43:31.064Z,28.54
2017-06-15T12:44:41.041Z,28.59
2017-06-15T12:45:51.265Z,28.44
2017-06-15T12:47:01.184Z,28.44
2017-06-15T12:48:11.415Z,28.55
2017-06-15T12:49:21.336Z,28.52
2017-06-15T12:50:31.602Z,28.46
2017-06-15T12:51:41.830Z,28.54
2017-06-15T12:52:51.468Z,28.55
2017-06-15T12:54:01.690Z,28.59
2017-06-15T12:55:11.305Z,28.59
2017-06-15T12:56:21.573Z,28.64
2017-06-15T12:57:31.187Z,28.48
2017-06-15T12:58:40.790Z,28.56
2017-06-15T12:59:51.029Z,28.54
2017-06-15T13:01:01.264Z,28.58
2017-06-15T13:02:11.345Z,28.52
2017-06-15T13:03:21.594Z,28.56
2017-06-15T13:04:31.819Z,28.58
2017-06-15T13:05:41.437Z,28.59
2017-06-15T13:06:51.362Z,28.59
2017-06-15T13:08:01.393Z,28.64
2017-06-15T13:09:10.711Z,28.58
2017-06-15T13:10:20.625Z,28.56
2017-06-15T13:11:29.928Z,28.56
2017-06-15T13:12:39.568Z,28.59
2017-06-15T13:13:49.960Z,28.54
2017-06-15T13:14:59.264Z,28.56
2017-06-15T13:16:09.511Z,28.61
2017-06-15T13:17:19.144Z,28.61
2017-06-15T13:18:29.359Z,28.58
2017-06-15T13:19:39.051Z,28.56
2017-06-15T13:20:48.981Z,28.59
2017-06-15T13:21:59.215Z,28.51
2017-06-15T13:23:08.840Z,28.56
2017-06-15T13:24:18.155Z,28.59
2017-06-15T13:25:27.788Z,28.62
2017-06-15T13:26:37.411Z,28.59
2017-06-15T13:27:47.034Z,28.58
2017-06-15T13:28:56.980Z,28.54
2017-06-15T13:30:06.907Z,28.58
2017-06-15T13:31:16.842Z,28.58
2017-06-15T13:32:27.101Z,28.54
2017-06-15T13:33:37.349Z,28.49
2017-06-15T13:34:47.570Z,28.48
2017-06-15T13:35:57.496Z,28.49
2017-06-15T13:37:07.779Z,28.44
2017-06-15T13:38:17.698Z,28.52
2017-06-15T13:39:27.308Z,28.44
2017-06-15T13:40:36.940Z,28.41
2017-06-15T13:41:47.172Z,28.49
2017-06-15T13:42:57.554Z,28.51
2017-06-15T13:44:07.486Z,28.54
2017-06-15T13:45:17.733Z,28.51
2017-06-15T13:46:27.371Z,28.44
2017-06-15T13:47:36.988Z,28.43
2017-06-15T13:48:47.570Z,28.46
2017-06-15T13:49:57.801Z,28.4
2017-06-15T13:51:07.735Z,28.43
2017-06-15T13:52:17.685Z,28.36
2017-06-15T13:53:27.617Z,28.34
2017-06-15T13:54:36.779Z,28.46
2017-06-15T13:55:46.728Z,28.4
2017-06-15T13:56:56.988Z,28.39
2017-06-15T13:58:07.010Z,28.4
2017-06-15T13:59:17.254Z,28.37
2017-06-15T14:00:27.561Z,28.34
2017-06-15T14:01:37.500Z,28.36
2017-06-15T14:02:47.750Z,28.34
2017-06-15T14:03:58.001Z,28.33
2017-06-15T14:05:07.616Z,28.27
2017-06-15T14:06:17.689Z,28.3
2017-06-15T14:07:27.612Z,28.27
2017-06-15T14:08:36.932Z,28.25
2017-06-15T14:09:46.869Z,28.25
2017-06-15T14:10:57.109Z,28.29
2017-06-15T14:12:06.887Z,28.21
2017-06-15T14:13:16.827Z,28.18
2017-06-15T14:14:26.796Z,28.25
2017-06-15T14:15:36.719Z,28.19
2017-06-15T14:16:46.347Z,28.17
2017-06-15T14:17:56.908Z,28.18
2017-06-15T14:19:06.523Z,28.11
2017-06-15T14:20:15.838Z,28.04
2017-06-15T14:21:25.492Z,28.04
2017-06-15T14:22:35.745Z,28.09
2017-06-15T14:23:45.413Z,28.04
2017-06-15T14:24:55.071Z,28.04
2017-06-15T14:26:04.725Z,28.04
2017-06-15T14:27:14.660Z,27.99
2017-06-15T14:28:24.321Z,27.94
2017-06-15T14:29:34.412Z,27.94
2017-06-15T14:30:43.715Z,27.99
2017-06-15T14:31:53.338Z,27.88
2017-06-15T14:33:03.278Z,27.92
2017-06-15T14:34:12.602Z,27.79
2017-06-15T14:35:23.198Z,27.9
2017-06-15T14:36:33.445Z,27.85
2017-06-15T14:37:43.704Z,27.94
2017-06-15T14:38:53.321Z,27.9
2017-06-15T14:40:02.945Z,27.85
2017-06-15T14:41:12.709Z,27.85
2017-06-15T14:42:22.950Z,27.82
2017-06-15T14:43:32.874Z,27.84
2017-06-15T14:44:42.494Z,27.84
2017-06-15T14:45:52.735Z,27.77
2017-06-15T14:47:02.508Z,27.75
2017-06-15T14:48:12.754Z,27.79
2017-06-15T14:49:22.995Z,27.75
2017-06-15T14:50:31.997Z,27.81
2017-06-15T14:51:41.924Z,27.72
2017-06-15T14:52:52.533Z,27.72
2017-06-15T14:54:02.162Z,27.69
2017-06-15T14:55:11.799Z,27.63
2017-06-15T14:56:21.723Z,27.69
2017-06-15T14:57:31.657Z,27.65
2017-06-15T14:58:41.066Z,27.67
2017-06-15T14:59:51.295Z,27.72
2017-06-15T15:01:00.910Z,27.63
2017-06-15T15:02:10.532Z,27.69
2017-06-15T15:03:20.156Z,27.66